sensor_id;sensor_type;location;lat;lon;timestamp;pressure;altitude;pressure_sealevel;temperature;humidity
48553;BME280;34335;51.566;6.994;2023-02-03T00:00:08;101835.59;;;7.27;100.00
48553;BME280;34335;51.566;6.994;2023-02-03T00:02:34;101827.06;;;7.31;100.00
48553;BME280;34335;51.566;6.994;2023-02-03T00:04:59;101835.63;;;7.29;100.00
48553;BME280;34335;51.566;6.994;2023-02-03T00:07:24;101835.69;;;7.30;100.00
48553;BME280;34335;51.566;6.994;2023-02-03T00:09:50;101823.66;;;7.32;100.00
48553;BME280;34335;51.566;6.994;2023-02-03T00:12:15;101842.66;;;7.33;100.00
48553;BME280;34335;51.566;6.994;2023-02-03T00:14:40;101826.31;;;7.34;100.00
48553;BME280;34335;51.566;6.994;2023-02-03T00:17:06;101822.69;;;7.29;100.00
48553;BME280;34335;51.566;6.994;2023-02-03T00:19:31;101817.72;;;7.35;100.00
48553;BME280;34335;51.566;6.994;2023-02-03T00:21:56;101821.13;;;7.34;100.00
48553;BME280;34335;51.566;6.994;2023-02-03T00:24:22;101809.09;;;7.36;100.00
48553;BME280;34335;51.566;6.994;2023-02-03T00:26:48;101812.69;;;7.40;100.00
48553;BME280;34335;51.566;6.994;2023-02-03T00:29:13;101811.75;;;7.38;100.00
48553;BME280;34335;51.566;6.994;2023-02-03T00:31:39;101808.25;;;7.37;100.00
48553;BME280;34335;51.566;6.994;2023-02-03T00:34:05;101810.84;;;7.37;100.00
48553;BME280;34335;51.566;6.994;2023-02-03T00:36:30;101802.91;;;7.31;100.00
48553;BME280;34335;51.566;6.994;2023-02-03T00:38:56;101819.16;;;7.27;100.00
48553;BME280;34335;51.566;6.994;2023-02-03T00:41:21;101810.84;;;7.37;100.00
48553;BME280;34335;51.566;6.994;2023-02-03T00:43:48;101825.41;;;7.33;100.00
48553;BME280;34335;51.566;6.994;2023-02-03T00:46:13;101823.66;;;7.32;100.00
48553;BME280;34335;51.566;6.994;2023-02-03T00:48:39;101815.84;;;7.31;100.00
48553;BME280;34335;51.566;6.994;2023-02-03T00:51:04;101825.38;;;7.32;100.00
48553;BME280;34335;51.566;6.994;2023-02-03T00:53:30;101827.28;;;7.38;100.00
48553;BME280;34335;51.566;6.994;2023-02-03T00:55:55;101830.69;;;7.37;100.00
48553;BME280;34335;51.566;6.994;2023-02-03T00:58:21;101859.16;;;7.37;100.00
48553;BME280;34335;51.566;6.994;2023-02-03T01:00:46;101854.28;;;7.47;100.00
48553;BME280;34335;51.566;6.994;2023-02-03T01:03:11;101850.78;;;7.45;100.00
48553;BME280;34335;51.566;6.994;2023-02-03T01:05:37;101850.06;;;7.49;100.00
48553;BME280;34335;51.566;6.994;2023-02-03T01:08:02;101857.66;;;7.43;100.00
48553;BME280;34335;51.566;6.994;2023-02-03T01:10:28;101881.84;;;7.45;100.00
48553;BME280;34335;51.566;6.994;2023-02-03T01:12:53;101880.13;;;7.44;100.00
48553;BME280;34335;51.566;6.994;2023-02-03T01:15:19;101877.47;;;7.43;100.00
48553;BME280;34335;51.566;6.994;2023-02-03T01:17:44;101886.88;;;7.41;100.00
48553;BME280;34335;51.566;6.994;2023-02-03T01:20:10;101883.41;;;7.40;100.00
48553;BME280;34335;51.566;6.994;2023-02-03T01:22:40;101880.00;;;7.41;100.00
48553;BME280;34335;51.566;6.994;2023-02-03T01:25:06;101872.13;;;7.38;100.00
48553;BME280;34335;51.566;6.994;2023-02-03T01:27:32;101870.38;;;7.37;100.00
48553;BME280;34335;51.566;6.994;2023-02-03T01:29:57;101875.56;;;7.37;100.00
48553;BME280;34335;51.566;6.994;2023-02-03T01:32:23;101863.38;;;7.33;100.00
48553;BME280;34335;51.566;6.994;2023-02-03T01:34:48;101867.78;;;7.37;100.00
48553;BME280;34335;51.566;6.994;2023-02-03T01:37:13;101860.78;;;7.33;100.00
48553;BME280;34335;51.566;6.994;2023-02-03T01:39:41;101870.47;;;7.40;100.00
48553;BME280;34335;51.566;6.994;2023-02-03T01:42:08;101869.56;;;7.38;100.00
48553;BME280;34335;51.566;6.994;2023-02-03T01:44:38;101860.97;;;7.39;100.00
48553;BME280;34335;51.566;6.994;2023-02-03T01:47:12;101856.88;;;7.47;100.00
48553;BME280;34335;51.566;6.994;2023-02-03T01:49:41;101866.16;;;7.41;100.00
48553;BME280;34335;51.566;6.994;2023-02-03T01:52:09;101860.91;;;7.38;100.00
48553;BME280;34335;51.566;6.994;2023-02-03T01:54:39;101866.88;;;7.35;100.00
48553;BME280;34335;51.566;6.994;2023-02-03T01:57:15;101886.03;;;7.42;100.00
48553;BME280;34335;51.566;6.994;2023-02-03T01:59:42;101869.50;;;7.37;100.00
48553;BME280;34335;51.566;6.994;2023-02-03T02:02:08;101868.00;;;7.43;100.00
48553;BME280;34335;51.566;6.994;2023-02-03T02:04:42;101845.69;;;7.48;100.00
48553;BME280;34335;51.566;6.994;2023-02-03T02:07:13;101840.34;;;7.42;100.00
48553;BME280;34335;51.566;6.994;2023-02-03T02:09:40;101835.22;;;7.44;100.00
48553;BME280;34335;51.566;6.994;2023-02-03T02:12:05;101844.56;;;7.39;100.00
48553;BME280;34335;51.566;6.994;2023-02-03T02:14:30;101836.16;;;7.46;100.00
48553;BME280;34335;51.566;6.994;2023-02-03T02:17:31;101828.25;;;7.41;100.00
48553;BME280;34335;51.566;6.994;2023-02-03T02:23:14;101811.13;;;7.46;100.00
48553;BME280;34335;51.566;6.994;2023-02-03T02:29:51;101810.09;;;7.40;100.00
48553;BME280;34335;51.566;6.994;2023-02-03T02:32:05;101816.22;;;7.43;100.00
48553;BME280;34335;51.566;6.994;2023-02-03T02:34:41;101810.25;;;7.46;100.00
48553;BME280;34335;51.566;6.994;2023-02-03T02:37:21;101798.00;;;7.40;100.00
48553;BME280;34335;51.566;6.994;2023-02-03T02:39:57;101792.00;;;7.41;100.00
48553;BME280;34335;51.566;6.994;2023-02-03T02:45:24;101792.81;;;7.39;100.00
48553;BME280;34335;51.566;6.994;2023-02-03T02:47:55;101781.56;;;7.38;100.00
48553;BME280;34335;51.566;6.994;2023-02-03T02:50:26;101774.56;;;7.34;100.00
48553;BME280;34335;51.566;6.994;2023-02-03T02:52:54;101767.63;;;7.33;100.00
48553;BME280;34335;51.566;6.994;2023-02-03T02:55:23;101759.03;;;7.34;100.00
48553;BME280;34335;51.566;6.994;2023-02-03T02:57:54;101777.41;;;7.43;100.00
48553;BME280;34335;51.566;6.994;2023-02-03T03:00:21;101791.91;;;7.38;100.00
48553;BME280;34335;51.566;6.994;2023-02-03T03:02:47;101804.97;;;7.43;100.00
48553;BME280;34335;51.566;6.994;2023-02-03T03:05:13;101815.59;;;7.52;100.00
48553;BME280;34335;51.566;6.994;2023-02-03T03:07:52;101815.44;;;7.46;100.00
48553;BME280;34335;51.566;6.994;2023-02-03T03:10:21;101816.97;;;7.39;100.00
48553;BME280;34335;51.566;6.994;2023-02-03T03:12:53;101821.19;;;7.37;100.00
48553;BME280;34335;51.566;6.994;2023-02-03T03:15:24;101808.41;;;7.42;100.00
48553;BME280;34335;51.566;6.994;2023-02-03T03:17:58;101796.34;;;7.42;100.00
48553;BME280;34335;51.566;6.994;2023-02-03T03:20:26;101808.47;;;7.43;100.00
48553;BME280;34335;51.566;6.994;2023-02-03T03:23:06;101805.88;;;7.43;100.00
48553;BME280;34335;51.566;6.994;2023-02-03T03:25:42;101805.78;;;7.40;100.00
48553;BME280;34335;51.566;6.994;2023-02-03T03:28:16;101799.00;;;7.45;100.00
48553;BME280;34335;51.566;6.994;2023-02-03T03:30:45;101804.03;;;7.39;100.00
48553;BME280;34335;51.566;6.994;2023-02-03T03:33:10;101797.97;;;7.39;100.00
48553;BME280;34335;51.566;6.994;2023-02-03T03:38:35;101789.41;;;7.41;100.00
48553;BME280;34335;51.566;6.994;2023-02-03T03:41:07;101805.94;;;7.46;100.00
48553;BME280;34335;51.566;6.994;2023-02-03T03:43:38;101798.84;;;7.39;100.00
48553;BME280;34335;51.566;6.994;2023-02-03T03:46:14;101799.00;;;7.45;100.00
48553;BME280;34335;51.566;6.994;2023-02-03T03:48:57;101802.63;;;7.51;100.00
48553;BME280;34335;51.566;6.994;2023-02-03T03:51:34;101818.00;;;7.44;100.00
48553;BME280;34335;51.566;6.994;2023-02-03T03:54:07;101805.19;;;7.49;100.00
48553;BME280;34335;51.566;6.994;2023-02-03T03:57:08;101815.47;;;7.47;100.00
48553;BME280;34335;51.566;6.994;2023-02-03T03:59:40;101808.53;;;7.46;100.00
48553;BME280;34335;51.566;6.994;2023-02-03T04:02:08;101816.22;;;7.43;100.00
48553;BME280;34335;51.566;6.994;2023-02-03T04:04:35;101806.88;;;7.48;100.00
48553;BME280;34335;51.566;6.994;2023-02-03T04:07:01;101805.94;;;7.46;100.00
48553;BME280;34335;51.566;6.994;2023-02-03T04:09:27;101801.69;;;7.48;100.00
48553;BME280;34335;51.566;6.994;2023-02-03T04:11:52;101806.88;;;7.48;100.00
48553;BME280;34335;51.566;6.994;2023-02-03T04:14:28;101794.75;;;7.47;100.00
48553;BME280;34335;51.566;6.994;2023-02-03T04:16:54;101797.34;;;7.47;100.00
48553;BME280;34335;51.566;6.994;2023-02-03T04:19:20;101793.94;;;7.48;100.00
48553;BME280;34335;51.566;6.994;2023-02-03T04:21:45;101795.69;;;7.49;100.00
48553;BME280;34335;51.566;6.994;2023-02-03T04:24:10;101790.63;;;7.53;100.00
48553;BME280;34335;51.566;6.994;2023-02-03T04:26:36;101815.47;;;7.47;100.00
48553;BME280;34335;51.566;6.994;2023-02-03T04:29:02;101805.94;;;7.46;100.00
48553;BME280;34335;51.566;6.994;2023-02-03T04:31:27;101808.53;;;7.46;100.00
48553;BME280;34335;51.566;6.994;2023-02-03T04:33:53;101792.19;;;7.47;100.00
48553;BME280;34335;51.566;6.994;2023-02-03T04:36:18;101806.94;;;7.50;100.00
48553;BME280;34335;51.566;6.994;2023-02-03T04:38:43;101799.13;;;7.48;100.00
48553;BME280;34335;51.566;6.994;2023-02-03T04:41:08;101792.09;;;7.44;100.00
48553;BME280;34335;51.566;6.994;2023-02-03T04:43:34;101792.13;;;7.46;100.00
48553;BME280;34335;51.566;6.994;2023-02-03T04:45:59;101796.41;;;7.45;100.00
48553;BME280;34335;51.566;6.994;2023-02-03T04:48:25;101782.63;;;7.45;100.00
48553;BME280;34335;51.566;6.994;2023-02-03T04:50:50;101780.03;;;7.45;100.00
48553;BME280;34335;51.566;6.994;2023-02-03T04:53:16;101774.81;;;7.43;100.00
48553;BME280;34335;51.566;6.994;2023-02-03T04:55:45;101764.38;;;7.40;100.00
48553;BME280;34335;51.566;6.994;2023-02-03T04:58:10;101761.88;;;7.43;100.00
48553;BME280;34335;51.566;6.994;2023-02-03T05:00:36;101758.59;;;7.49;100.00
48553;BME280;34335;51.566;6.994;2023-02-03T05:03:01;101750.69;;;7.44;100.00
48553;BME280;34335;51.566;6.994;2023-02-03T05:05:26;101765.38;;;7.45;100.00
48553;BME280;34335;51.566;6.994;2023-02-03T05:07:51;101758.47;;;7.44;100.00
48553;BME280;34335;51.566;6.994;2023-02-03T05:10:17;101766.22;;;7.44;100.00
48553;BME280;34335;51.566;6.994;2023-02-03T05:12:42;101768.72;;;7.41;100.00
48553;BME280;34335;51.566;6.994;2023-02-03T05:15:08;101781.81;;;7.47;100.00
48553;BME280;34335;51.566;6.994;2023-02-03T05:17:33;101759.31;;;7.45;100.00
48553;BME280;34335;51.566;6.994;2023-02-03T05:20:03;101761.81;;;7.42;100.00
48553;BME280;34335;51.566;6.994;2023-02-03T05:22:28;101774.88;;;7.46;100.00
48553;BME280;34335;51.566;6.994;2023-02-03T05:24:54;101768.81;;;7.44;100.00
48553;BME280;34335;51.566;6.994;2023-02-03T05:27:19;101762.72;;;7.42;100.00
48553;BME280;34335;51.566;6.994;2023-02-03T05:29:44;101774.06;;;7.47;100.00
48553;BME280;34335;51.566;6.994;2023-02-03T05:32:09;101761.13;;;7.47;100.00
48553;BME280;34335;51.566;6.994;2023-02-03T05:34:35;101742.88;;;7.43;100.00
48553;BME280;34335;51.566;6.994;2023-02-03T05:37:00;101738.78;;;7.51;100.00
48553;BME280;34335;51.566;6.994;2023-02-03T05:39:25;101740.41;;;7.47;100.00
48553;BME280;34335;51.566;6.994;2023-02-03T05:41:50;101745.56;;;7.46;100.00
48553;BME280;34335;51.566;6.994;2023-02-03T05:44:20;101755.94;;;7.47;100.00
48553;BME280;34335;51.566;6.994;2023-02-03T05:46:46;101761.22;;;7.51;100.00
48553;BME280;34335;51.566;6.994;2023-02-03T05:49:11;101761.94;;;7.46;100.00
48553;BME280;34335;51.566;6.994;2023-02-03T05:51:37;101759.47;;;7.49;100.00
48553;BME280;34335;51.566;6.994;2023-02-03T05:54:04;101750.84;;;7.51;100.00
48553;BME280;34335;51.566;6.994;2023-02-03T05:56:29;101765.47;;;7.48;100.00
48553;BME280;34335;51.566;6.994;2023-02-03T05:58:54;101761.06;;;7.44;100.00
48553;BME280;34335;51.566;6.994;2023-02-03T06:01:19;101754.28;;;7.49;100.00
48553;BME280;34335;51.566;6.994;2023-02-03T06:03:45;101767.25;;;7.51;100.00
48553;BME280;34335;51.566;6.994;2023-02-03T06:06:11;101762.06;;;7.51;100.00
48553;BME280;34335;51.566;6.994;2023-02-03T06:08:36;101771.56;;;7.51;100.00
48553;BME280;34335;51.566;6.994;2023-02-03T06:11:01;101771.66;;;7.54;100.00
48553;BME280;34335;51.566;6.994;2023-02-03T06:13:27;101772.44;;;7.51;100.00
48553;BME280;34335;51.566;6.994;2023-02-03T06:15:52;101764.78;;;7.56;100.00
48553;BME280;34335;51.566;6.994;2023-02-03T06:18:18;101755.94;;;7.47;100.00
48553;BME280;34335;51.566;6.994;2023-02-03T06:20:43;101758.66;;;7.52;100.00
48553;BME280;34335;51.566;6.994;2023-02-03T06:23:09;101766.56;;;7.57;100.00
48553;BME280;34335;51.566;6.994;2023-02-03T06:25:34;101767.22;;;7.49;100.00
48553;BME280;34335;51.566;6.994;2023-02-03T06:27:59;101767.47;;;7.59;100.00
48553;BME280;34335;51.566;6.994;2023-02-03T06:30:25;101764.03;;;7.58;100.00
48553;BME280;34335;51.566;6.994;2023-02-03T06:32:50;101766.50;;;7.54;100.00
48553;BME280;34335;51.566;6.994;2023-02-03T06:35:16;101764.72;;;7.53;100.00
48553;BME280;34335;51.566;6.994;2023-02-03T06:37:41;101762.88;;;7.48;100.00
48553;BME280;34335;51.566;6.994;2023-02-03T06:40:08;101766.28;;;7.47;100.00
48553;BME280;34335;51.566;6.994;2023-02-03T06:42:34;101765.47;;;7.48;100.00
48553;BME280;34335;51.566;6.994;2023-02-03T06:44:59;101782.75;;;7.49;100.00
48553;BME280;34335;51.566;6.994;2023-02-03T06:47:24;101770.72;;;7.50;100.00
48553;BME280;34335;51.566;6.994;2023-02-03T06:49:50;101776.06;;;7.58;100.00
48553;BME280;34335;51.566;6.994;2023-02-03T06:52:16;101763.06;;;7.55;100.00
48553;BME280;34335;51.566;6.994;2023-02-03T06:54:41;101777.53;;;7.48;100.00
48553;BME280;34335;51.566;6.994;2023-02-03T06:57:07;101777.53;;;7.48;100.00
48553;BME280;34335;51.566;6.994;2023-02-03T06:59:32;101772.41;;;7.49;100.00
48553;BME280;34335;51.566;6.994;2023-02-03T07:01:57;101784.38;;;7.46;100.00
48553;BME280;34335;51.566;6.994;2023-02-03T07:04:22;101775.72;;;7.45;100.00
48553;BME280;34335;51.566;6.994;2023-02-03T07:06:48;101786.16;;;7.48;100.00
48553;BME280;34335;51.566;6.994;2023-02-03T07:09:13;101781.97;;;7.52;100.00
48553;BME280;34335;51.566;6.994;2023-02-03T07:11:39;101781.31;;;7.59;100.00
48553;BME280;34335;51.566;6.994;2023-02-03T07:14:04;101777.81;;;7.57;100.00
48553;BME280;34335;51.566;6.994;2023-02-03T07:16:29;101795.13;;;7.60;100.00
48553;BME280;34335;51.566;6.994;2023-02-03T07:18:55;101792.63;;;7.63;100.00
48553;BME280;34335;51.566;6.994;2023-02-03T07:21:21;101787.41;;;7.61;100.00
48553;BME280;34335;51.566;6.994;2023-02-03T07:23:47;101783.25;;;7.67;100.00
48553;BME280;34335;51.566;6.994;2023-02-03T07:26:13;101794.41;;;7.64;100.00
48553;BME280;34335;51.566;6.994;2023-02-03T07:28:38;101782.31;;;7.64;100.00
48553;BME280;34335;51.566;6.994;2023-02-03T07:31:04;101780.59;;;7.65;100.00
48553;BME280;34335;51.566;6.994;2023-02-03T07:33:30;101784.91;;;7.64;100.00
48553;BME280;34335;51.566;6.994;2023-02-03T07:46:03;101800.28;;;7.58;100.00
48553;BME280;34335;51.566;6.994;2023-02-03T07:48:28;101797.63;;;7.57;100.00
48553;BME280;34335;51.566;6.994;2023-02-03T08:11:04;101795.34;;;7.68;100.00
48553;BME280;34335;51.566;6.994;2023-02-03T08:13:29;101800.44;;;7.64;100.00
48553;BME280;34335;51.566;6.994;2023-02-03T08:15:54;101810.00;;;7.67;100.00
48553;BME280;34335;51.566;6.994;2023-02-03T08:18:20;101802.34;;;7.72;100.00
48553;BME280;34335;51.566;6.994;2023-02-03T08:20:46;101800.56;;;7.69;100.00
48553;BME280;34335;51.566;6.994;2023-02-03T08:23:12;101828.19;;;7.69;100.00
48553;BME280;34335;51.566;6.994;2023-02-03T08:25:37;101816.38;;;7.78;100.00
48553;BME280;34335;51.566;6.994;2023-02-03T08:28:03;101815.44;;;7.76;100.00
48553;BME280;34335;51.566;6.994;2023-02-03T08:40:23;101814.03;;;7.88;100.00
48553;BME280;34335;51.566;6.994;2023-02-03T08:42:48;101803.56;;;7.85;100.00
48553;BME280;34335;51.566;6.994;2023-02-03T08:45:14;101804.44;;;7.84;100.00
48553;BME280;34335;51.566;6.994;2023-02-03T08:47:39;101814.97;;;7.90;100.00
48553;BME280;34335;51.566;6.994;2023-02-03T08:50:06;101803.72;;;7.89;100.00
48553;BME280;34335;51.566;6.994;2023-02-03T08:52:31;101821.94;;;7.92;100.00
48553;BME280;34335;51.566;6.994;2023-02-03T08:54:57;101806.25;;;7.88;100.00
48553;BME280;34335;51.566;6.994;2023-02-03T08:57:22;101804.72;;;7.94;100.00
48553;BME280;34335;51.566;6.994;2023-02-03T08:59:47;101801.09;;;7.88;100.00
48553;BME280;34335;51.566;6.994;2023-02-03T09:02:15;101810.06;;;8.01;100.00
48553;BME280;34335;51.566;6.994;2023-02-03T09:04:42;101810.28;;;8.08;100.00
48553;BME280;34335;51.566;6.994;2023-02-03T09:07:07;101819.56;;;8.00;100.00
48553;BME280;34335;51.566;6.994;2023-02-03T09:09:32;101818.75;;;8.03;100.00
48553;BME280;34335;51.566;6.994;2023-02-03T09:11:58;101809.19;;;8.00;100.00
48553;BME280;34335;51.566;6.994;2023-02-03T09:14:30;101817.00;;;8.02;100.00
48553;BME280;34335;51.566;6.994;2023-02-03T09:16:57;101832.78;;;8.09;100.00
48553;BME280;34335;51.566;6.994;2023-02-03T09:19:22;101814.38;;;8.00;100.00
48553;BME280;34335;51.566;6.994;2023-02-03T09:21:47;101827.25;;;7.97;100.00
48553;BME280;34335;51.566;6.994;2023-02-03T09:24:16;101828.44;;;8.10;100.00
48553;BME280;34335;51.566;6.994;2023-02-03T09:26:42;101837.13;;;8.10;100.00
48553;BME280;34335;51.566;6.994;2023-02-03T09:29:08;101829.25;;;8.07;100.00
48553;BME280;34335;51.566;6.994;2023-02-03T09:31:35;101820.03;;;8.17;100.00
48553;BME280;34335;51.566;6.994;2023-02-03T09:34:00;101812.13;;;8.13;100.00
48553;BME280;34335;51.566;6.994;2023-02-03T09:36:26;101833.84;;;8.18;100.00
48553;BME280;34335;51.566;6.994;2023-02-03T09:38:51;101818.16;;;8.11;100.00
48553;BME280;34335;51.566;6.994;2023-02-03T09:46:39;101825.25;;;8.19;100.00
48553;BME280;34335;51.566;6.994;2023-02-03T09:49:30;101817.50;;;8.20;100.00
48553;BME280;34335;51.566;6.994;2023-02-03T09:54:51;101820.03;;;8.17;100.00
48553;BME280;34335;51.566;6.994;2023-02-03T09:57:22;101816.63;;;8.20;100.00
48553;BME280;34335;51.566;6.994;2023-02-03T09:59:49;101803.69;;;8.20;100.00
48553;BME280;34335;51.566;6.994;2023-02-03T10:02:22;101816.66;;;8.21;100.00
48553;BME280;34335;51.566;6.994;2023-02-03T10:05:13;101833.25;;;8.28;100.00
48553;BME280;34335;51.566;6.994;2023-02-03T10:10:25;101822.00;;;8.27;100.00
48553;BME280;34335;51.566;6.994;2023-02-03T10:13:22;101830.59;;;8.25;100.00
48553;BME280;34335;51.566;6.994;2023-02-03T10:16:03;101851.50;;;8.31;100.00
48553;BME280;34335;51.566;6.994;2023-02-03T10:18:36;101839.19;;;8.24;100.00
48553;BME280;34335;51.566;6.994;2023-02-03T10:23:57;101831.53;;;8.29;100.00
48553;BME280;34335;51.566;6.994;2023-02-03T10:26:27;101844.56;;;8.30;100.00
48553;BME280;34335;51.566;6.994;2023-02-03T10:28:55;101843.63;;;8.28;100.00
48553;BME280;34335;51.566;6.994;2023-02-03T10:31:54;101841.19;;;8.34;100.00
48553;BME280;34335;51.566;6.994;2023-02-03T10:34:23;101847.97;;;8.29;100.00
48553;BME280;34335;51.566;6.994;2023-02-03T10:37:03;101848.09;;;8.34;100.00
48553;BME280;34335;51.566;6.994;2023-02-03T10:39:45;101851.69;;;8.39;100.00
48553;BME280;34335;51.566;6.994;2023-02-03T10:42:12;101848.97;;;8.34;100.00
48553;BME280;34335;51.566;6.994;2023-02-03T10:44:39;101837.63;;;8.29;100.00
48553;BME280;34335;51.566;6.994;2023-02-03T10:49:50;101835.16;;;8.34;100.00
48553;BME280;34335;51.566;6.994;2023-02-03T10:52:33;101834.25;;;8.33;100.00
48553;BME280;34335;51.566;6.994;2023-02-03T10:55:05;101838.66;;;8.36;100.00
48553;BME280;34335;51.566;6.994;2023-02-03T10:57:34;101839.53;;;8.36;100.00
48553;BME280;34335;51.566;6.994;2023-02-03T11:00:29;101847.34;;;8.38;100.00
48553;BME280;34335;51.566;6.994;2023-02-03T11:05:26;101831.91;;;8.42;100.00
48553;BME280;34335;51.566;6.994;2023-02-03T11:07:52;101846.56;;;8.40;100.00
48553;BME280;34335;51.566;6.994;2023-02-03T11:10:38;101850.03;;;8.42;100.00
48553;BME280;34335;51.566;6.994;2023-02-03T11:13:19;101858.88;;;8.48;100.00
48553;BME280;34335;51.566;6.994;2023-02-03T11:16:04;101860.63;;;8.49;100.00
48553;BME280;34335;51.566;6.994;2023-02-03T11:18:54;101851.97;;;8.48;100.00
48553;BME280;34335;51.566;6.994;2023-02-03T11:24:30;101852.84;;;8.49;100.00
48553;BME280;34335;51.566;6.994;2023-02-03T11:27:00;101861.50;;;8.49;100.00
48553;BME280;34335;51.566;6.994;2023-02-03T11:29:33;101862.38;;;8.50;100.00
48553;BME280;34335;51.566;6.994;2023-02-03T11:32:15;101852.06;;;8.53;100.00
48553;BME280;34335;51.566;6.994;2023-02-03T11:34:47;101865.00;;;8.51;100.00
48553;BME280;34335;51.566;6.994;2023-02-03T11:37:36;101860.78;;;8.55;100.00
48553;BME280;34335;51.566;6.994;2023-02-03T11:42:39;101863.41;;;8.56;100.00
48553;BME280;34335;51.566;6.994;2023-02-03T11:47:47;101857.47;;;8.61;100.00
48553;BME280;34335;51.566;6.994;2023-02-03T11:55:32;101865.13;;;8.56;100.00
48553;BME280;34335;51.566;6.994;2023-02-03T12:06:04;101864.28;;;8.57;100.00
48553;BME280;34335;51.566;6.994;2023-02-03T12:14:46;101860.06;;;8.61;100.00
48553;BME280;34335;51.566;6.994;2023-02-03T12:23:25;101882.56;;;8.62;100.00
48553;BME280;34335;51.566;6.994;2023-02-03T12:26:26;101883.44;;;8.62;100.00
48553;BME280;34335;51.566;6.994;2023-02-03T12:29:03;101886.09;;;8.65;100.00
48553;BME280;34335;51.566;6.994;2023-02-03T12:34:26;101873.16;;;8.65;100.00
48553;BME280;34335;51.566;6.994;2023-02-03T12:37:09;101868.03;;;8.68;100.00
48553;BME280;34335;51.566;6.994;2023-02-03T12:39:53;101876.69;;;8.69;100.00
48553;BME280;34335;51.566;6.994;2023-02-03T12:42:27;101862.13;;;8.74;100.00
48553;BME280;34335;51.566;6.994;2023-02-03T12:45:04;101870.88;;;8.78;100.00
48553;BME280;34335;51.566;6.994;2023-02-03T12:47:37;101879.75;;;8.87;100.00
48553;BME280;34335;51.566;6.994;2023-02-03T12:50:55;101882.44;;;8.92;100.00
48553;BME280;34335;51.566;6.994;2023-02-03T12:53:08;101882.41;;;8.89;100.00
48553;BME280;34335;51.566;6.994;2023-02-03T12:55:43;101885.78;;;8.86;100.00
48553;BME280;34335;51.566;6.994;2023-02-03T12:58:14;101878.00;;;8.86;100.00
48553;BME280;34335;51.566;6.994;2023-02-03T13:00:48;101877.25;;;8.91;100.00
48553;BME280;34335;51.566;6.994;2023-02-03T13:03:26;101869.47;;;8.92;100.00
48553;BME280;34335;51.566;6.994;2023-02-03T13:06:25;101875.50;;;8.91;100.00
48553;BME280;34335;51.566;6.994;2023-02-03T13:17:17;101883.34;;;8.93;100.00
48553;BME280;34335;51.566;6.994;2023-02-03T13:19:48;101879.91;;;8.94;100.00
48553;BME280;34335;51.566;6.994;2023-02-03T13:22:15;101874.75;;;8.95;100.00
48553;BME280;34335;51.566;6.994;2023-02-03T13:24:47;101873.84;;;8.93;100.00
48553;BME280;34335;51.566;6.994;2023-02-03T13:27:40;101867.78;;;8.93;100.00
48553;BME280;34335;51.566;6.994;2023-02-03T13:30:38;101876.41;;;8.92;100.00
48553;BME280;34335;51.566;6.994;2023-02-03T13:41:47;101864.16;;;8.86;100.00
48553;BME280;34335;51.566;6.994;2023-02-03T13:44:18;101858.84;;;8.81;100.00
48553;BME280;34335;51.566;6.994;2023-02-03T13:46:47;101869.09;;;8.75;100.00
48553;BME280;34335;51.566;6.994;2023-02-03T13:49:33;101896.22;;;8.54;100.00
48553;BME280;34335;51.566;6.994;2023-02-03T13:51:59;101918.78;;;8.28;100.00
48553;BME280;34335;51.566;6.994;2023-02-03T13:54:29;101908.34;;;7.94;100.00
48553;BME280;34335;51.566;6.994;2023-02-03T13:56:58;101927.63;;;7.75;100.00
48553;BME280;34335;51.566;6.994;2023-02-03T13:59:39;101924.31;;;7.79;100.00
48553;BME280;34335;51.566;6.994;2023-02-03T14:10:04;101909.00;;;7.31;100.00
48553;BME280;34335;51.566;6.994;2023-02-03T14:12:34;101914.63;;;7.17;100.00
48553;BME280;34335;51.566;6.994;2023-02-03T14:15:46;101914.97;;;7.28;100.00
48553;BME280;34335;51.566;6.994;2023-02-03T14:22:50;101940.03;;;7.29;100.00
48553;BME280;34335;51.566;6.994;2023-02-03T14:25:18;101947.66;;;7.25;100.00
48553;BME280;34335;51.566;6.994;2023-02-03T14:27:45;101960.78;;;7.31;100.00
48553;BME280;34335;51.566;6.994;2023-02-03T14:30:13;101955.72;;;7.34;100.00
48553;BME280;34335;51.566;6.994;2023-02-03T14:32:48;101959.19;;;7.36;100.00
48553;BME280;34335;51.566;6.994;2023-02-03T14:35:24;101965.31;;;7.38;100.00
48553;BME280;34335;51.566;6.994;2023-02-03T14:37:56;101972.28;;;7.41;100.00
48553;BME280;34335;51.566;6.994;2023-02-03T14:43:17;101970.59;;;7.41;100.00
48553;BME280;34335;51.566;6.994;2023-02-03T14:46:26;101979.22;;;7.42;100.00
48553;BME280;34335;51.566;6.994;2023-02-03T14:52:10;101994.75;;;7.42;100.00
48553;BME280;34335;51.566;6.994;2023-02-03T14:57:38;101993.94;;;7.43;100.00
48553;BME280;34335;51.566;6.994;2023-02-03T15:00:29;101994.00;;;7.44;100.00
48553;BME280;34335;51.566;6.994;2023-02-03T15:05:39;101999.25;;;7.47;100.00
48553;BME280;34335;51.566;6.994;2023-02-03T15:08:44;101994.06;;;7.47;100.00
48553;BME280;34335;51.566;6.994;2023-02-03T15:13:48;102015.53;;;7.43;100.00
48553;BME280;34335;51.566;6.994;2023-02-03T15:16:19;102011.19;;;7.42;100.00
48553;BME280;34335;51.566;6.994;2023-02-03T15:18:45;102020.72;;;7.43;100.00
48553;BME280;34335;51.566;6.994;2023-02-03T15:21:18;102022.41;;;7.43;100.00
48553;BME280;34335;51.566;6.994;2023-02-03T15:23:45;102019.03;;;7.45;100.00
48553;BME280;34335;51.566;6.994;2023-02-03T15:26:25;102021.53;;;7.42;100.00
48553;BME280;34335;51.566;6.994;2023-02-03T15:28:58;102023.28;;;7.43;100.00
48553;BME280;34335;51.566;6.994;2023-02-03T15:31:34;102027.56;;;7.43;100.00
48553;BME280;34335;51.566;6.994;2023-02-03T15:34:10;102035.31;;;7.41;100.00
48553;BME280;34335;51.566;6.994;2023-02-03T15:36:43;102037.06;;;7.42;100.00